This is the latest recevied weather packets stored in our database for station/object KM4KBD. If no packets are shown the sender has not sent any weather packets the latest 10 day(s).
| Time | Temp. | Humidity | Pressure | Rain* | Wind** | Luminosity | Snow |
|---|---|---|---|---|---|---|---|
| 1777891652 | 10° C | 89% | 1020.8 hPa | 1.27 mm | - | 1 W/m² | - |
| 1777891348 | 10.56° C | 88% | 1020.6 hPa | 10.16 mm | - | 0 W/m² | - |
| 1777891044 | 10° C | 88% | 1020.8 hPa | 13.72 mm | - | 0 W/m² | - |
| 1777890743 | 10.56° C | 84% | 1020.9 hPa | 7.87 mm | - | 0 W/m² | - |
| 1777890135 | 11.11° C | 81% | 1019.2 hPa | 0 mm | - | 0 W/m² | - |
| 1777889832 | 11.11° C | 81% | 1018.7 hPa | 0 mm | - | 0 W/m² | - |
| 1777889530 | 11.11° C | 81% | 1018.8 hPa | 0 mm | - | 0 W/m² | - |
| 1777889227 | 11.11° C | 80% | 1018.9 hPa | 0 mm | - | 0 W/m² | - |
| 1777888622 | 10.56° C | 84% | 1018.8 hPa | 0 mm | - | 0 W/m² | - |
| 1777887409 | 11.11° C | 80% | 1019.3 hPa | 1.27 mm | - | 0 W/m² | - |
| 1777887109 | 11.11° C | 78% | 1019.4 hPa | 0 mm | - | 0 W/m² | - |
| 1777886805 | 11.67° C | 76% | 1019.2 hPa | 0 mm | - | 0 W/m² | - |
| 1777886501 | 11.67° C | 75% | 1019.3 hPa | 0 mm | - | 0 W/m² | - |
| 1777886200 | 11.67° C | 73% | 1019.2 hPa | 0 mm | - | 0 W/m² | - |
| 1777885897 | 11.67° C | 72% | 1019.1 hPa | 0 mm | - | 0 W/m² | - |
| 1777885596 | 12.22° C | 70% | 1019 hPa | 0 mm | - | 0 W/m² | - |
| 1777885293 | 12.22° C | 69% | 1019.2 hPa | 0 mm | - | 0 W/m² | - |
| 1777884992 | 12.22° C | 68% | 1019.3 hPa | 0 mm | - | 0 W/m² | - |
| 1777884686 | 12.22° C | 67% | 1019.3 hPa | 0 mm | - | 0 W/m² | - |
| 1777884384 | 12.22° C | 67% | 1019.1 hPa | 0 mm | - | 0 W/m² | - |
| 1777884080 | 12.22° C | 65% | 1019.6 hPa | 0 mm | - | 0 W/m² | - |
| 1777883778 | 12.22° C | 65% | 1019.4 hPa | 0 mm | - | 0 W/m² | - |
| 1777883474 | 12.22° C | 64% | 1018.9 hPa | 0 mm | - | 0 W/m² | - |
| 1777883170 | 12.22° C | 64% | 1019.3 hPa | 0 mm | - | 0 W/m² | - |
| 1777882867 | 12.22° C | 63% | 1019.2 hPa | 0 mm | - | 0 W/m² | - |
* Rain latest hour (hover to see other rain measurements)
** Current wind speed in m/s (hover to see current wind gust speed)